sensor_id;sensor_type;location;lat;lon;timestamp;P1;durP1;ratioP1;P2;durP2;ratioP2
53775;SDS011;44276;49.534;6.378;2022-07-21T00:00:23;20.52;;;12.48;;
53775;SDS011;44276;49.534;6.378;2022-07-21T00:02:54;33.15;;;14.07;;
53775;SDS011;44276;49.534;6.378;2022-07-21T00:05:23;18.17;;;12.80;;
53775;SDS011;44276;49.534;6.378;2022-07-21T00:07:53;19.55;;;13.50;;
53775;SDS011;44276;49.534;6.378;2022-07-21T00:10:23;19.02;;;13.95;;
53775;SDS011;44276;49.534;6.378;2022-07-21T00:12:54;19.10;;;12.75;;
53775;SDS011;44276;49.534;6.378;2022-07-21T00:15:23;18.27;;;14.13;;
53775;SDS011;44276;49.534;6.378;2022-07-21T00:17:54;21.30;;;13.18;;
53775;SDS011;44276;49.534;6.378;2022-07-21T00:20:22;19.85;;;13.98;;
53775;SDS011;44276;49.534;6.378;2022-07-21T00:22:50;20.80;;;14.23;;
53775;SDS011;44276;49.534;6.378;2022-07-21T00:25:18;24.05;;;14.32;;
53775;SDS011;44276;49.534;6.378;2022-07-21T00:27:47;23.40;;;13.93;;
53775;SDS011;44276;49.534;6.378;2022-07-21T00:30:18;25.08;;;15.13;;
53775;SDS011;44276;49.534;6.378;2022-07-21T00:32:46;32.85;;;16.77;;
53775;SDS011;44276;49.534;6.378;2022-07-21T00:35:15;28.73;;;14.85;;
53775;SDS011;44276;49.534;6.378;2022-07-21T00:37:45;26.67;;;16.23;;
53775;SDS011;44276;49.534;6.378;2022-07-21T00:40:13;29.02;;;16.55;;
53775;SDS011;44276;49.534;6.378;2022-07-21T00:42:42;25.40;;;16.60;;
53775;SDS011;44276;49.534;6.378;2022-07-21T00:45:12;26.25;;;17.45;;
53775;SDS011;44276;49.534;6.378;2022-07-21T00:47:41;25.35;;;16.67;;
53775;SDS011;44276;49.534;6.378;2022-07-21T00:50:11;28.05;;;17.42;;
53775;SDS011;44276;49.534;6.378;2022-07-21T00:52:42;27.67;;;16.35;;
53775;SDS011;44276;49.534;6.378;2022-07-21T00:55:12;31.60;;;17.42;;
53775;SDS011;44276;49.534;6.378;2022-07-21T00:57:45;27.75;;;16.55;;
53775;SDS011;44276;49.534;6.378;2022-07-21T01:00:15;36.72;;;17.02;;
53775;SDS011;44276;49.534;6.378;2022-07-21T01:02:49;22.75;;;16.25;;
53775;SDS011;44276;49.534;6.378;2022-07-21T01:05:18;30.33;;;18.88;;
53775;SDS011;44276;49.534;6.378;2022-07-21T01:07:47;26.77;;;17.50;;
53775;SDS011;44276;49.534;6.378;2022-07-21T01:10:18;24.90;;;16.73;;
53775;SDS011;44276;49.534;6.378;2022-07-21T01:12:50;30.77;;;16.50;;
53775;SDS011;44276;49.534;6.378;2022-07-21T01:15:19;25.27;;;16.58;;
53775;SDS011;44276;49.534;6.378;2022-07-21T01:17:50;26.50;;;16.33;;
53775;SDS011;44276;49.534;6.378;2022-07-21T01:20:19;26.90;;;16.95;;
53775;SDS011;44276;49.534;6.378;2022-07-21T01:22:52;29.38;;;17.10;;
53775;SDS011;44276;49.534;6.378;2022-07-21T01:25:23;26.48;;;16.45;;
53775;SDS011;44276;49.534;6.378;2022-07-21T01:27:51;23.33;;;15.43;;
53775;SDS011;44276;49.534;6.378;2022-07-21T01:30:20;27.27;;;15.88;;
53775;SDS011;44276;49.534;6.378;2022-07-21T01:32:48;30.08;;;16.50;;
53775;SDS011;44276;49.534;6.378;2022-07-21T01:35:16;21.02;;;13.88;;
53775;SDS011;44276;49.534;6.378;2022-07-21T01:37:45;23.15;;;14.52;;
53775;SDS011;44276;49.534;6.378;2022-07-21T01:40:16;22.88;;;15.73;;
53775;SDS011;44276;49.534;6.378;2022-07-21T01:43:03;24.13;;;15.63;;
53775;SDS011;44276;49.534;6.378;2022-07-21T01:45:37;18.40;;;13.43;;
53775;SDS011;44276;49.534;6.378;2022-07-21T01:48:06;21.38;;;13.93;;
53775;SDS011;44276;49.534;6.378;2022-07-21T01:50:36;23.63;;;14.30;;
53775;SDS011;44276;49.534;6.378;2022-07-21T01:53:04;24.13;;;14.57;;
53775;SDS011;44276;49.534;6.378;2022-07-21T01:55:34;19.17;;;14.65;;
53775;SDS011;44276;49.534;6.378;2022-07-21T01:58:02;26.80;;;15.25;;
53775;SDS011;44276;49.534;6.378;2022-07-21T02:00:30;23.90;;;15.27;;
53775;SDS011;44276;49.534;6.378;2022-07-21T02:02:59;26.65;;;16.63;;
53775;SDS011;44276;49.534;6.378;2022-07-21T02:05:27;19.63;;;15.27;;
53775;SDS011;44276;49.534;6.378;2022-07-21T02:07:55;29.08;;;16.02;;
53775;SDS011;44276;49.534;6.378;2022-07-21T02:10:23;27.92;;;18.23;;
53775;SDS011;44276;49.534;6.378;2022-07-21T02:12:53;27.65;;;16.10;;
53775;SDS011;44276;49.534;6.378;2022-07-21T02:15:21;30.17;;;17.75;;
53775;SDS011;44276;49.534;6.378;2022-07-21T02:17:49;26.67;;;18.30;;
53775;SDS011;44276;49.534;6.378;2022-07-21T02:20:17;30.52;;;16.98;;
53775;SDS011;44276;49.534;6.378;2022-07-21T02:22:45;26.92;;;18.65;;
53775;SDS011;44276;49.534;6.378;2022-07-21T02:25:14;29.27;;;18.58;;
53775;SDS011;44276;49.534;6.378;2022-07-21T02:27:42;27.38;;;18.08;;
53775;SDS011;44276;49.534;6.378;2022-07-21T02:30:14;36.50;;;19.95;;
53775;SDS011;44276;49.534;6.378;2022-07-21T02:32:42;29.70;;;19.05;;
53775;SDS011;44276;49.534;6.378;2022-07-21T02:35:10;29.80;;;17.25;;
53775;SDS011;44276;49.534;6.378;2022-07-21T02:37:39;28.40;;;16.60;;
53775;SDS011;44276;49.534;6.378;2022-07-21T02:40:07;23.33;;;16.15;;
53775;SDS011;44276;49.534;6.378;2022-07-21T02:42:36;23.83;;;16.67;;
53775;SDS011;44276;49.534;6.378;2022-07-21T02:45:06;26.02;;;16.83;;
53775;SDS011;44276;49.534;6.378;2022-07-21T02:47:48;22.90;;;16.40;;
53775;SDS011;44276;49.534;6.378;2022-07-21T02:50:21;21.40;;;15.30;;
53775;SDS011;44276;49.534;6.378;2022-07-21T02:52:53;21.25;;;15.05;;
53775;SDS011;44276;49.534;6.378;2022-07-21T02:55:23;26.27;;;16.30;;
53775;SDS011;44276;49.534;6.378;2022-07-21T02:58:02;25.48;;;14.70;;
53775;SDS011;44276;49.534;6.378;2022-07-21T03:00:32;24.48;;;15.70;;
53775;SDS011;44276;49.534;6.378;2022-07-21T03:03:03;24.52;;;16.63;;
53775;SDS011;44276;49.534;6.378;2022-07-21T03:05:32;19.48;;;14.63;;
53775;SDS011;44276;49.534;6.378;2022-07-21T03:08:01;23.75;;;16.50;;
53775;SDS011;44276;49.534;6.378;2022-07-21T03:10:30;29.70;;;17.05;;
53775;SDS011;44276;49.534;6.378;2022-07-21T03:12:59;24.17;;;17.02;;
53775;SDS011;44276;49.534;6.378;2022-07-21T03:15:27;22.20;;;16.75;;
53775;SDS011;44276;49.534;6.378;2022-07-21T03:17:55;22.75;;;16.90;;
53775;SDS011;44276;49.534;6.378;2022-07-21T03:20:26;26.70;;;17.17;;
53775;SDS011;44276;49.534;6.378;2022-07-21T03:22:57;25.85;;;17.05;;
53775;SDS011;44276;49.534;6.378;2022-07-21T03:25:25;26.33;;;15.30;;
53775;SDS011;44276;49.534;6.378;2022-07-21T03:27:55;28.27;;;17.17;;
53775;SDS011;44276;49.534;6.378;2022-07-21T03:30:23;22.83;;;15.07;;
53775;SDS011;44276;49.534;6.378;2022-07-21T03:32:55;22.27;;;16.45;;
53775;SDS011;44276;49.534;6.378;2022-07-21T03:35:23;31.77;;;18.55;;
53775;SDS011;44276;49.534;6.378;2022-07-21T03:37:54;25.10;;;17.27;;
53775;SDS011;44276;49.534;6.378;2022-07-21T03:40:25;27.85;;;16.20;;
53775;SDS011;44276;49.534;6.378;2022-07-21T03:42:56;25.33;;;16.83;;
53775;SDS011;44276;49.534;6.378;2022-07-21T03:45:27;24.38;;;16.45;;
53775;SDS011;44276;49.534;6.378;2022-07-21T03:47:57;25.02;;;18.17;;
53775;SDS011;44276;49.534;6.378;2022-07-21T03:50:27;28.15;;;18.85;;
53775;SDS011;44276;49.534;6.378;2022-07-21T03:52:57;28.50;;;18.58;;
53775;SDS011;44276;49.534;6.378;2022-07-21T03:55:26;33.20;;;19.88;;
53775;SDS011;44276;49.534;6.378;2022-07-21T03:57:55;26.38;;;18.45;;
53775;SDS011;44276;49.534;6.378;2022-07-21T04:00:26;27.65;;;18.17;;
53775;SDS011;44276;49.534;6.378;2022-07-21T04:02:57;28.52;;;17.00;;
53775;SDS011;44276;49.534;6.378;2022-07-21T04:05:28;26.33;;;17.10;;
53775;SDS011;44276;49.534;6.378;2022-07-21T04:07:57;29.60;;;17.60;;
53775;SDS011;44276;49.534;6.378;2022-07-21T04:10:27;23.80;;;17.30;;
53775;SDS011;44276;49.534;6.378;2022-07-21T04:12:58;23.42;;;16.13;;
53775;SDS011;44276;49.534;6.378;2022-07-21T04:15:29;24.13;;;16.33;;
53775;SDS011;44276;49.534;6.378;2022-07-21T04:17:58;24.52;;;17.05;;
53775;SDS011;44276;49.534;6.378;2022-07-21T04:20:28;22.17;;;16.85;;
53775;SDS011;44276;49.534;6.378;2022-07-21T04:22:56;19.48;;;14.18;;
53775;SDS011;44276;49.534;6.378;2022-07-21T04:25:25;21.77;;;16.50;;
53775;SDS011;44276;49.534;6.378;2022-07-21T04:27:54;20.50;;;14.30;;
53775;SDS011;44276;49.534;6.378;2022-07-21T04:30:24;21.25;;;14.48;;
53775;SDS011;44276;49.534;6.378;2022-07-21T04:32:52;17.15;;;13.95;;
53775;SDS011;44276;49.534;6.378;2022-07-21T04:35:21;19.95;;;14.52;;
53775;SDS011;44276;49.534;6.378;2022-07-21T04:37:51;18.25;;;13.18;;
53775;SDS011;44276;49.534;6.378;2022-07-21T04:40:19;19.20;;;14.70;;
53775;SDS011;44276;49.534;6.378;2022-07-21T04:42:48;15.18;;;12.00;;
53775;SDS011;44276;49.534;6.378;2022-07-21T04:45:16;23.70;;;12.63;;
53775;SDS011;44276;49.534;6.378;2022-07-21T04:47:45;17.67;;;13.32;;
53775;SDS011;44276;49.534;6.378;2022-07-21T04:50:17;21.08;;;11.68;;
53775;SDS011;44276;49.534;6.378;2022-07-21T04:52:48;20.42;;;12.82;;
53775;SDS011;44276;49.534;6.378;2022-07-21T04:55:18;15.57;;;11.85;;
53775;SDS011;44276;49.534;6.378;2022-07-21T04:57:48;20.02;;;13.10;;
53775;SDS011;44276;49.534;6.378;2022-07-21T05:00:19;21.58;;;12.80;;
53775;SDS011;44276;49.534;6.378;2022-07-21T05:02:50;16.85;;;11.90;;
53775;SDS011;44276;49.534;6.378;2022-07-21T05:05:20;17.70;;;12.32;;
53775;SDS011;44276;49.534;6.378;2022-07-21T05:07:51;18.77;;;13.05;;
53775;SDS011;44276;49.534;6.378;2022-07-21T05:10:19;16.20;;;10.98;;
53775;SDS011;44276;49.534;6.378;2022-07-21T05:12:47;20.35;;;12.38;;
53775;SDS011;44276;49.534;6.378;2022-07-21T05:15:16;18.58;;;12.55;;
53775;SDS011;44276;49.534;6.378;2022-07-21T05:17:45;16.67;;;11.48;;
53775;SDS011;44276;49.534;6.378;2022-07-21T05:20:13;15.18;;;10.68;;
53775;SDS011;44276;49.534;6.378;2022-07-21T05:22:41;12.90;;;10.07;;
53775;SDS011;44276;49.534;6.378;2022-07-21T05:25:11;14.75;;;10.90;;
53775;SDS011;44276;49.534;6.378;2022-07-21T05:27:39;14.88;;;11.35;;
53775;SDS011;44276;49.534;6.378;2022-07-21T05:30:07;15.63;;;11.35;;
53775;SDS011;44276;49.534;6.378;2022-07-21T05:32:37;13.23;;;10.75;;
53775;SDS011;44276;49.534;6.378;2022-07-21T05:35:13;15.77;;;11.77;;
53775;SDS011;44276;49.534;6.378;2022-07-21T05:37:41;19.92;;;12.38;;
53775;SDS011;44276;49.534;6.378;2022-07-21T05:40:11;18.70;;;12.30;;
53775;SDS011;44276;49.534;6.378;2022-07-21T05:42:40;13.77;;;11.25;;
53775;SDS011;44276;49.534;6.378;2022-07-21T05:45:08;19.42;;;11.80;;
53775;SDS011;44276;49.534;6.378;2022-07-21T05:47:38;17.20;;;11.93;;
53775;SDS011;44276;49.534;6.378;2022-07-21T05:50:08;15.68;;;10.57;;
53775;SDS011;44276;49.534;6.378;2022-07-21T05:52:37;17.45;;;11.07;;
53775;SDS011;44276;49.534;6.378;2022-07-21T05:55:06;13.65;;;9.20;;
53775;SDS011;44276;49.534;6.378;2022-07-21T05:57:37;13.10;;;9.98;;
53775;SDS011;44276;49.534;6.378;2022-07-21T06:00:12;18.30;;;9.07;;
53775;SDS011;44276;49.534;6.378;2022-07-21T06:02:42;16.85;;;9.73;;
53775;SDS011;44276;49.534;6.378;2022-07-21T06:05:10;14.02;;;8.63;;
53775;SDS011;44276;49.534;6.378;2022-07-21T06:07:39;11.65;;;8.88;;
53775;SDS011;44276;49.534;6.378;2022-07-21T06:10:08;11.45;;;7.88;;
53775;SDS011;44276;49.534;6.378;2022-07-21T06:12:42;9.00;;;7.47;;
53775;SDS011;44276;49.534;6.378;2022-07-21T06:15:12;10.32;;;7.45;;
53775;SDS011;44276;49.534;6.378;2022-07-21T06:17:42;11.85;;;8.30;;
53775;SDS011;44276;49.534;6.378;2022-07-21T06:20:13;14.32;;;8.93;;
53775;SDS011;44276;49.534;6.378;2022-07-21T06:22:41;14.85;;;8.73;;
53775;SDS011;44276;49.534;6.378;2022-07-21T06:25:10;8.98;;;7.53;;
53775;SDS011;44276;49.534;6.378;2022-07-21T06:27:38;11.45;;;9.43;;
53775;SDS011;44276;49.534;6.378;2022-07-21T06:30:08;12.70;;;8.95;;
53775;SDS011;44276;49.534;6.378;2022-07-21T06:32:38;9.77;;;8.35;;
53775;SDS011;44276;49.534;6.378;2022-07-21T06:35:07;12.98;;;8.10;;
53775;SDS011;44276;49.534;6.378;2022-07-21T06:37:36;14.88;;;7.85;;
53775;SDS011;44276;49.534;6.378;2022-07-21T06:40:05;10.38;;;8.20;;
53775;SDS011;44276;49.534;6.378;2022-07-21T06:42:35;14.95;;;9.63;;
53775;SDS011;44276;49.534;6.378;2022-07-21T06:45:27;13.70;;;9.38;;
53775;SDS011;44276;49.534;6.378;2022-07-21T06:48:00;15.45;;;8.93;;
53775;SDS011;44276;49.534;6.378;2022-07-21T06:50:33;13.25;;;8.25;;
53775;SDS011;44276;49.534;6.378;2022-07-21T06:53:03;12.27;;;9.50;;
53775;SDS011;44276;49.534;6.378;2022-07-21T06:55:33;14.75;;;9.15;;
53775;SDS011;44276;49.534;6.378;2022-07-21T06:58:09;10.98;;;7.80;;
53775;SDS011;44276;49.534;6.378;2022-07-21T07:00:40;14.27;;;7.88;;
53775;SDS011;44276;49.534;6.378;2022-07-21T07:03:09;11.05;;;8.65;;
53775;SDS011;44276;49.534;6.378;2022-07-21T07:05:38;13.32;;;9.07;;
53775;SDS011;44276;49.534;6.378;2022-07-21T07:08:07;10.00;;;8.40;;
53775;SDS011;44276;49.534;6.378;2022-07-21T07:10:37;12.25;;;9.38;;
53775;SDS011;44276;49.534;6.378;2022-07-21T07:13:06;15.23;;;8.32;;
53775;SDS011;44276;49.534;6.378;2022-07-21T07:15:56;10.93;;;7.43;;
53775;SDS011;44276;49.534;6.378;2022-07-21T07:18:25;10.20;;;7.40;;
53775;SDS011;44276;49.534;6.378;2022-07-21T07:20:53;9.30;;;6.45;;
53775;SDS011;44276;49.534;6.378;2022-07-21T07:23:21;10.43;;;6.32;;
53775;SDS011;44276;49.534;6.378;2022-07-21T07:25:49;8.57;;;6.40;;
53775;SDS011;44276;49.534;6.378;2022-07-21T07:28:17;7.75;;;6.32;;
53775;SDS011;44276;49.534;6.378;2022-07-21T07:30:45;8.40;;;6.35;;
53775;SDS011;44276;49.534;6.378;2022-07-21T07:33:16;9.35;;;5.90;;
53775;SDS011;44276;49.534;6.378;2022-07-21T07:35:44;12.75;;;7.07;;
53775;SDS011;44276;49.534;6.378;2022-07-21T07:38:12;7.05;;;4.93;;
53775;SDS011;44276;49.534;6.378;2022-07-21T07:40:41;9.75;;;6.10;;
53775;SDS011;44276;49.534;6.378;2022-07-21T07:43:09;9.20;;;6.45;;
53775;SDS011;44276;49.534;6.378;2022-07-21T07:45:38;8.15;;;5.22;;
53775;SDS011;44276;49.534;6.378;2022-07-21T07:48:06;7.40;;;5.75;;
53775;SDS011;44276;49.534;6.378;2022-07-21T07:50:35;8.80;;;4.43;;
53775;SDS011;44276;49.534;6.378;2022-07-21T07:53:04;6.15;;;4.13;;
53775;SDS011;44276;49.534;6.378;2022-07-21T07:55:32;5.75;;;5.07;;
53775;SDS011;44276;49.534;6.378;2022-07-21T07:58:00;7.43;;;4.03;;
53775;SDS011;44276;49.534;6.378;2022-07-21T08:00:28;7.68;;;4.30;;
53775;SDS011;44276;49.534;6.378;2022-07-21T08:03:16;5.90;;;3.75;;
53775;SDS011;44276;49.534;6.378;2022-07-21T08:05:46;10.07;;;5.85;;
53775;SDS011;44276;49.534;6.378;2022-07-21T08:08:15;6.78;;;4.47;;
53775;SDS011;44276;49.534;6.378;2022-07-21T08:10:45;6.05;;;4.18;;
53775;SDS011;44276;49.534;6.378;2022-07-21T08:13:14;5.78;;;4.13;;
53775;SDS011;44276;49.534;6.378;2022-07-21T08:15:44;6.82;;;5.45;;
53775;SDS011;44276;49.534;6.378;2022-07-21T08:18:14;10.07;;;5.75;;
53775;SDS011;44276;49.534;6.378;2022-07-21T08:20:44;7.88;;;4.88;;
53775;SDS011;44276;49.534;6.378;2022-07-21T08:23:15;9.52;;;4.95;;
53775;SDS011;44276;49.534;6.378;2022-07-21T08:25:44;5.88;;;4.65;;
53775;SDS011;44276;49.534;6.378;2022-07-21T08:28:12;8.02;;;4.50;;
53775;SDS011;44276;49.534;6.378;2022-07-21T08:30:40;8.18;;;5.50;;
53775;SDS011;44276;49.534;6.378;2022-07-21T08:33:09;11.82;;;4.57;;
53775;SDS011;44276;49.534;6.378;2022-07-21T08:35:37;4.22;;;3.83;;
53775;SDS011;44276;49.534;6.378;2022-07-21T08:38:08;7.55;;;4.55;;
53775;SDS011;44276;49.534;6.378;2022-07-21T08:40:39;11.77;;;5.22;;
53775;SDS011;44276;49.534;6.378;2022-07-21T08:43:11;5.13;;;4.22;;
53775;SDS011;44276;49.534;6.378;2022-07-21T08:45:41;8.95;;;4.97;;
53775;SDS011;44276;49.534;6.378;2022-07-21T08:48:10;4.85;;;3.88;;
53775;SDS011;44276;49.534;6.378;2022-07-21T08:50:40;7.30;;;4.47;;
53775;SDS011;44276;49.534;6.378;2022-07-21T08:53:10;6.60;;;4.38;;
53775;SDS011;44276;49.534;6.378;2022-07-21T08:55:38;9.75;;;5.22;;
53775;SDS011;44276;49.534;6.378;2022-07-21T08:58:07;8.25;;;4.38;;
53775;SDS011;44276;49.534;6.378;2022-07-21T09:00:38;7.13;;;4.60;;
53775;SDS011;44276;49.534;6.378;2022-07-21T09:03:14;7.85;;;4.25;;
53775;SDS011;44276;49.534;6.378;2022-07-21T09:05:58;6.53;;;4.30;;
53775;SDS011;44276;49.534;6.378;2022-07-21T09:08:33;7.67;;;4.13;;
53775;SDS011;44276;49.534;6.378;2022-07-21T09:11:07;9.40;;;4.38;;
53775;SDS011;44276;49.534;6.378;2022-07-21T09:13:42;8.45;;;4.82;;
53775;SDS011;44276;49.534;6.378;2022-07-21T09:16:13;9.05;;;4.72;;
53775;SDS011;44276;49.534;6.378;2022-07-21T09:18:47;7.50;;;4.43;;
53775;SDS011;44276;49.534;6.378;2022-07-21T09:21:19;9.27;;;4.93;;
53775;SDS011;44276;49.534;6.378;2022-07-21T09:23:48;6.05;;;4.55;;
53775;SDS011;44276;49.534;6.378;2022-07-21T09:26:17;13.25;;;4.40;;
53775;SDS011;44276;49.534;6.378;2022-07-21T09:28:45;10.65;;;5.85;;
53775;SDS011;44276;49.534;6.378;2022-07-21T09:31:14;6.32;;;4.97;;
53775;SDS011;44276;49.534;6.378;2022-07-21T09:33:43;5.88;;;4.20;;
53775;SDS011;44276;49.534;6.378;2022-07-21T09:36:13;10.27;;;4.72;;
53775;SDS011;44276;49.534;6.378;2022-07-21T09:38:44;6.35;;;4.53;;
53775;SDS011;44276;49.534;6.378;2022-07-21T09:41:22;4.45;;;4.00;;
53775;SDS011;44276;49.534;6.378;2022-07-21T09:43:54;6.93;;;4.68;;
53775;SDS011;44276;49.534;6.378;2022-07-21T09:46:24;7.25;;;4.13;;
53775;SDS011;44276;49.534;6.378;2022-07-21T09:48:56;6.68;;;4.15;;
53775;SDS011;44276;49.534;6.378;2022-07-21T09:51:48;6.05;;;4.53;;
53775;SDS011;44276;49.534;6.378;2022-07-21T09:54:17;4.40;;;4.00;;
53775;SDS011;44276;49.534;6.378;2022-07-21T09:56:45;7.80;;;4.13;;
53775;SDS011;44276;49.534;6.378;2022-07-21T09:59:14;6.20;;;3.78;;
53775;SDS011;44276;49.534;6.378;2022-07-21T10:01:42;4.57;;;3.80;;
53775;SDS011;44276;49.534;6.378;2022-07-21T10:04:13;5.63;;;3.63;;
53775;SDS011;44276;49.534;6.378;2022-07-21T10:06:41;8.80;;;3.90;;
53775;SDS011;44276;49.534;6.378;2022-07-21T10:09:13;6.75;;;4.50;;
53775;SDS011;44276;49.534;6.378;2022-07-21T10:11:45;4.97;;;3.80;;
53775;SDS011;44276;49.534;6.378;2022-07-21T10:14:14;5.32;;;3.83;;
53775;SDS011;44276;49.534;6.378;2022-07-21T10:16:42;5.68;;;3.92;;
53775;SDS011;44276;49.534;6.378;2022-07-21T10:19:19;6.70;;;4.40;;
53775;SDS011;44276;49.534;6.378;2022-07-21T10:21:55;7.25;;;4.40;;
53775;SDS011;44276;49.534;6.378;2022-07-21T10:24:35;10.35;;;5.57;;
53775;SDS011;44276;49.534;6.378;2022-07-21T10:27:07;8.00;;;4.30;;
53775;SDS011;44276;49.534;6.378;2022-07-21T10:29:50;7.50;;;4.28;;
53775;SDS011;44276;49.534;6.378;2022-07-21T10:32:29;6.63;;;3.97;;
53775;SDS011;44276;49.534;6.378;2022-07-21T10:35:01;5.65;;;3.17;;
53775;SDS011;44276;49.534;6.378;2022-07-21T10:37:52;6.28;;;3.72;;
53775;SDS011;44276;49.534;6.378;2022-07-21T10:40:39;5.50;;;3.65;;
53775;SDS011;44276;49.534;6.378;2022-07-21T10:49:04;5.72;;;3.95;;
53775;SDS011;44276;49.534;6.378;2022-07-21T10:51:35;4.35;;;3.53;;
53775;SDS011;44276;49.534;6.378;2022-07-21T10:54:21;6.30;;;3.55;;
53775;SDS011;44276;49.534;6.378;2022-07-21T11:03:03;6.43;;;3.78;;
53775;SDS011;44276;49.534;6.378;2022-07-21T11:09:05;5.82;;;4.32;;
53775;SDS011;44276;49.534;6.378;2022-07-21T11:11:37;6.05;;;3.25;;
53775;SDS011;44276;49.534;6.378;2022-07-21T11:14:10;5.40;;;3.47;;
53775;SDS011;44276;49.534;6.378;2022-07-21T11:19:52;5.30;;;3.67;;
53775;SDS011;44276;49.534;6.378;2022-07-21T11:22:21;4.80;;;3.72;;
53775;SDS011;44276;49.534;6.378;2022-07-21T11:24:52;5.03;;;3.38;;
53775;SDS011;44276;49.534;6.378;2022-07-21T11:27:28;5.82;;;3.33;;
53775;SDS011;44276;49.534;6.378;2022-07-21T11:29:59;4.75;;;3.17;;
53775;SDS011;44276;49.534;6.378;2022-07-21T11:32:32;9.60;;;3.00;;
53775;SDS011;44276;49.534;6.378;2022-07-21T11:35:01;6.53;;;3.28;;
53775;SDS011;44276;49.534;6.378;2022-07-21T11:37:33;4.53;;;3.20;;
53775;SDS011;44276;49.534;6.378;2022-07-21T11:40:05;2.97;;;2.65;;
53775;SDS011;44276;49.534;6.378;2022-07-21T11:42:38;3.45;;;2.88;;
53775;SDS011;44276;49.534;6.378;2022-07-21T11:45:09;5.03;;;3.08;;
53775;SDS011;44276;49.534;6.378;2022-07-21T11:47:40;3.47;;;2.55;;
53775;SDS011;44276;49.534;6.378;2022-07-21T11:50:17;3.97;;;3.55;;
53775;SDS011;44276;49.534;6.378;2022-07-21T11:52:45;5.15;;;3.33;;
53775;SDS011;44276;49.534;6.378;2022-07-21T11:55:14;3.58;;;2.83;;
53775;SDS011;44276;49.534;6.378;2022-07-21T11:57:43;6.68;;;3.22;;
53775;SDS011;44276;49.534;6.378;2022-07-21T12:00:13;3.97;;;3.38;;
53775;SDS011;44276;49.534;6.378;2022-07-21T12:02:48;4.65;;;2.90;;
53775;SDS011;44276;49.534;6.378;2022-07-21T12:05:18;7.60;;;3.83;;
53775;SDS011;44276;49.534;6.378;2022-07-21T12:07:46;7.30;;;4.30;;
53775;SDS011;44276;49.534;6.378;2022-07-21T12:10:21;6.72;;;3.78;;
53775;SDS011;44276;49.534;6.378;2022-07-21T12:12:55;4.35;;;2.97;;
53775;SDS011;44276;49.534;6.378;2022-07-21T12:15:27;3.63;;;2.60;;
53775;SDS011;44276;49.534;6.378;2022-07-21T12:18:02;4.40;;;3.10;;
53775;SDS011;44276;49.534;6.378;2022-07-21T12:20:33;10.98;;;3.55;;
53775;SDS011;44276;49.534;6.378;2022-07-21T12:23:17;4.90;;;3.90;;
53775;SDS011;44276;49.534;6.378;2022-07-21T12:25:48;6.50;;;3.85;;
53775;SDS011;44276;49.534;6.378;2022-07-21T12:28:22;4.35;;;3.50;;
53775;SDS011;44276;49.534;6.378;2022-07-21T12:31:11;6.22;;;3.42;;
53775;SDS011;44276;49.534;6.378;2022-07-21T12:33:44;6.57;;;3.70;;
53775;SDS011;44276;49.534;6.378;2022-07-21T12:36:32;8.52;;;3.60;;
53775;SDS011;44276;49.534;6.378;2022-07-21T12:39:12;5.03;;;3.55;;
53775;SDS011;44276;49.534;6.378;2022-07-21T12:42:04;5.32;;;4.13;;
53775;SDS011;44276;49.534;6.378;2022-07-21T12:44:34;5.82;;;3.88;;
53775;SDS011;44276;49.534;6.378;2022-07-21T12:47:15;5.75;;;4.30;;
53775;SDS011;44276;49.534;6.378;2022-07-21T12:49:56;13.00;;;8.05;;
53775;SDS011;44276;49.534;6.378;2022-07-21T12:52:42;11.63;;;7.57;;
53775;SDS011;44276;49.534;6.378;2022-07-21T12:55:10;7.75;;;3.88;;
53775;SDS011;44276;49.534;6.378;2022-07-21T12:57:38;7.72;;;4.05;;
53775;SDS011;44276;49.534;6.378;2022-07-21T13:00:07;6.60;;;4.57;;
53775;SDS011;44276;49.534;6.378;2022-07-21T13:02:44;8.13;;;4.65;;
53775;SDS011;44276;49.534;6.378;2022-07-21T13:05:15;4.28;;;3.67;;
53775;SDS011;44276;49.534;6.378;2022-07-21T13:07:44;5.50;;;3.53;;
53775;SDS011;44276;49.534;6.378;2022-07-21T13:10:12;4.43;;;3.80;;
53775;SDS011;44276;49.534;6.378;2022-07-21T13:12:41;7.63;;;3.63;;
53775;SDS011;44276;49.534;6.378;2022-07-21T13:15:10;4.47;;;3.83;;
53775;SDS011;44276;49.534;6.378;2022-07-21T13:17:39;5.72;;;3.53;;
53775;SDS011;44276;49.534;6.378;2022-07-21T13:20:07;6.20;;;4.22;;
53775;SDS011;44276;49.534;6.378;2022-07-21T13:22:38;4.50;;;3.53;;
53775;SDS011;44276;49.534;6.378;2022-07-21T13:25:06;8.27;;;3.70;;
53775;SDS011;44276;49.534;6.378;2022-07-21T13:27:37;4.97;;;4.05;;
53775;SDS011;44276;49.534;6.378;2022-07-21T13:32:41;7.45;;;4.80;;
53775;SDS011;44276;49.534;6.378;2022-07-21T13:35:09;5.07;;;3.85;;
53775;SDS011;44276;49.534;6.378;2022-07-21T13:37:57;6.77;;;4.50;;
53775;SDS011;44276;49.534;6.378;2022-07-21T13:40:26;5.40;;;4.20;;
53775;SDS011;44276;49.534;6.378;2022-07-21T13:43:15;4.80;;;4.00;;
53775;SDS011;44276;49.534;6.378;2022-07-21T13:46:03;6.30;;;4.40;;
53775;SDS011;44276;49.534;6.378;2022-07-21T13:48:32;6.72;;;4.72;;
53775;SDS011;44276;49.534;6.378;2022-07-21T13:51:09;7.38;;;4.90;;
53775;SDS011;44276;49.534;6.378;2022-07-21T13:53:39;11.15;;;5.18;;
53775;SDS011;44276;49.534;6.378;2022-07-21T13:56:09;6.63;;;5.22;;
53775;SDS011;44276;49.534;6.378;2022-07-21T13:58:38;9.35;;;4.80;;
53775;SDS011;44276;49.534;6.378;2022-07-21T14:01:07;8.18;;;5.80;;
53775;SDS011;44276;49.534;6.378;2022-07-21T14:03:37;9.15;;;5.70;;
53775;SDS011;44276;49.534;6.378;2022-07-21T14:06:06;8.45;;;5.07;;
53775;SDS011;44276;49.534;6.378;2022-07-21T14:08:35;7.90;;;4.78;;
53775;SDS011;44276;49.534;6.378;2022-07-21T14:11:06;6.70;;;5.13;;
53775;SDS011;44276;49.534;6.378;2022-07-21T14:13:35;6.03;;;4.20;;
53775;SDS011;44276;49.534;6.378;2022-07-21T14:16:03;6.85;;;4.75;;
53775;SDS011;44276;49.534;6.378;2022-07-21T14:18:32;8.13;;;5.38;;
53775;SDS011;44276;49.534;6.378;2022-07-21T14:21:01;10.80;;;5.07;;
53775;SDS011;44276;49.534;6.378;2022-07-21T14:23:30;7.60;;;5.07;;
53775;SDS011;44276;49.534;6.378;2022-07-21T14:25:59;7.90;;;4.53;;
53775;SDS011;44276;49.534;6.378;2022-07-21T14:28:31;5.82;;;4.55;;
53775;SDS011;44276;49.534;6.378;2022-07-21T14:30:59;4.78;;;4.28;;
53775;SDS011;44276;49.534;6.378;2022-07-21T14:33:27;5.47;;;4.28;;
53775;SDS011;44276;49.534;6.378;2022-07-21T14:35:56;8.07;;;4.80;;
53775;SDS011;44276;49.534;6.378;2022-07-21T14:38:25;5.20;;;4.07;;
53775;SDS011;44276;49.534;6.378;2022-07-21T14:40:56;5.57;;;4.03;;
53775;SDS011;44276;49.534;6.378;2022-07-21T14:43:25;8.57;;;4.80;;
53775;SDS011;44276;49.534;6.378;2022-07-21T14:45:54;5.07;;;4.57;;
53775;SDS011;44276;49.534;6.378;2022-07-21T14:48:22;8.32;;;4.22;;
53775;SDS011;44276;49.534;6.378;2022-07-21T14:50:50;9.85;;;4.63;;
53775;SDS011;44276;49.534;6.378;2022-07-21T14:53:19;6.65;;;5.07;;
53775;SDS011;44276;49.534;6.378;2022-07-21T14:55:47;7.10;;;5.15;;
53775;SDS011;44276;49.534;6.378;2022-07-21T14:58:15;6.28;;;4.85;;
53775;SDS011;44276;49.534;6.378;2022-07-21T15:00:43;9.85;;;4.30;;
53775;SDS011;44276;49.534;6.378;2022-07-21T15:03:13;5.57;;;4.10;;
53775;SDS011;44276;49.534;6.378;2022-07-21T15:05:41;5.95;;;4.78;;
53775;SDS011;44276;49.534;6.378;2022-07-21T15:08:10;5.28;;;4.32;;
53775;SDS011;44276;49.534;6.378;2022-07-21T15:10:40;6.13;;;4.28;;
53775;SDS011;44276;49.534;6.378;2022-07-21T15:13:10;9.07;;;4.05;;
53775;SDS011;44276;49.534;6.378;2022-07-21T15:15:38;8.90;;;5.00;;
53775;SDS011;44276;49.534;6.378;2022-07-21T15:18:07;6.72;;;4.90;;